createdAt,value
2018-08-22T00:01:05.487Z,62.53
2018-08-22T00:03:35.326Z,61.58
2018-08-22T00:06:05.422Z,61.87
2018-08-22T00:08:40.517Z,61.83
2018-08-22T00:11:10.862Z,62.78
2018-08-22T00:13:41.010Z,62.15
2018-08-22T00:16:11.306Z,62.46
2018-08-22T00:18:41.756Z,62.77
2018-08-22T00:21:11.603Z,63.50
2018-08-22T00:23:41.548Z,63.92
2018-08-22T00:26:11.539Z,63.85
2018-08-22T00:28:41.508Z,63.70
2018-08-22T00:31:11.340Z,63.93
2018-08-22T00:33:41.260Z,63.71
2018-08-22T00:36:11.685Z,63.78
2018-08-22T00:38:42.195Z,63.95
2018-08-22T00:41:12.264Z,64.37
2018-08-22T00:43:42.054Z,64.14
2018-08-22T00:46:11.895Z,64.31
2018-08-22T00:48:42.363Z,63.67
2018-08-22T00:51:12.471Z,63.64
2018-08-22T00:53:42.431Z,63.63
2018-08-22T00:56:12.375Z,64.03
2018-08-22T00:58:42.665Z,62.76
2018-08-22T01:01:12.742Z,63.22
2018-08-22T01:03:42.768Z,63.16
2018-08-22T01:06:12.856Z,62.67
2018-08-22T01:08:42.899Z,63.16
2018-08-22T01:11:12.931Z,63.49
2018-08-22T01:13:43.119Z,63.19
2018-08-22T01:16:13.052Z,62.93
2018-08-22T01:18:43.022Z,63.41
2018-08-22T01:21:12.972Z,64.03
2018-08-22T01:23:42.942Z,63.15
2018-08-22T01:26:13.291Z,64.34
2018-08-22T01:28:43.567Z,63.51
2018-08-22T01:31:13.480Z,63.36
2018-08-22T01:33:43.318Z,64.18
2018-08-22T01:36:13.372Z,64.29
2018-08-22T01:38:43.320Z,63.95
2018-08-22T01:41:13.199Z,64.57
2018-08-22T01:43:43.076Z,64.75
2018-08-22T01:46:13.141Z,65.20
2018-08-22T01:48:42.934Z,64.45
2018-08-22T01:51:13.042Z,64.80
2018-08-22T01:53:42.953Z,65.70
2018-08-22T01:56:12.843Z,65.48
2018-08-22T01:58:42.664Z,64.92
2018-08-22T02:01:12.517Z,65.42
2018-08-22T02:03:42.345Z,65.34
2018-08-22T02:06:12.256Z,66.39
2018-08-22T02:08:42.428Z,65.98
2018-08-22T02:11:12.382Z,66.33
2018-08-22T02:13:42.298Z,66.68
2018-08-22T02:16:12.105Z,66.08
2018-08-22T02:18:42.047Z,66.30
2018-08-22T02:21:11.923Z,66.69
2018-08-22T02:23:41.963Z,65.87
2018-08-22T02:26:11.987Z,66.18
2018-08-22T02:28:41.875Z,66.59
2018-08-22T02:31:11.723Z,66.32
2018-08-22T02:33:41.800Z,66.20
2018-08-22T02:36:11.702Z,66.44
2018-08-22T02:38:41.509Z,65.54
2018-08-22T02:43:40.493Z,66.37
2018-08-22T02:46:10.442Z,65.38
2018-08-22T02:48:45.917Z,66.73
2018-08-22T02:51:16.432Z,65.85
2018-08-22T02:53:46.786Z,66.37
2018-08-22T02:56:17.271Z,66.89
2018-08-22T02:58:47.727Z,66.80
2018-08-22T03:01:18.282Z,67.90
2018-08-22T03:03:48.742Z,67.10
2018-08-22T03:06:19.314Z,67.59
2018-08-22T03:08:49.905Z,67.77
2018-08-22T03:11:20.406Z,68.28
2018-08-22T03:13:51.182Z,68.26
2018-08-22T03:16:21.911Z,67.56
2018-08-22T03:18:53.065Z,68.15
2018-08-22T03:21:23.369Z,68.55
2018-08-22T03:23:53.816Z,67.62
2018-08-22T03:26:24.872Z,68.97
2018-08-22T03:28:55.117Z,68.31
2018-08-22T03:31:25.338Z,68.65
2018-08-22T03:33:55.909Z,68.14
2018-08-22T03:36:26.085Z,68.09
2018-08-22T03:38:56.722Z,67.83
2018-08-22T03:41:27.332Z,67.83
2018-08-22T03:43:57.763Z,68.76
2018-08-22T03:46:28.252Z,68.11
2018-08-22T03:48:58.606Z,67.95
2018-08-22T03:51:28.924Z,68.57
2018-08-22T03:53:59.353Z,68.70
2018-08-22T03:56:29.646Z,68.02
2018-08-22T03:59:02.948Z,68.64
2018-08-22T04:01:33.790Z,68.80
2018-08-22T04:04:04.099Z,68.36
2018-08-22T04:06:34.561Z,68.71
2018-08-22T04:09:06.398Z,68.73
2018-08-22T04:11:37.228Z,68.19
2018-08-22T04:14:07.806Z,68.92
2018-08-22T04:16:38.271Z,68.97
2018-08-22T04:19:08.963Z,68.06
2018-08-22T04:21:39.287Z,68.30
2018-08-22T04:24:09.805Z,67.43
2018-08-22T04:26:40.374Z,68.35
2018-08-22T04:29:10.912Z,68.44
2018-08-22T04:31:41.592Z,68.06
2018-08-22T04:34:12.045Z,68.71
2018-08-22T04:36:42.648Z,67.64
2018-08-22T04:39:13.200Z,67.74
2018-08-22T04:41:43.345Z,68.56
2018-08-22T04:44:13.776Z,67.83
2018-08-22T04:46:44.002Z,68.42
2018-08-22T04:49:14.308Z,67.75
2018-08-22T04:51:51.114Z,67.50
2018-08-22T04:54:21.460Z,68.38
2018-08-22T04:56:51.885Z,67.67
2018-08-22T04:59:22.314Z,67.45
2018-08-22T05:01:52.731Z,67.62
2018-08-22T05:04:23.224Z,67.23
2018-08-22T05:06:53.467Z,67.02
2018-08-22T05:09:23.558Z,66.79
2018-08-22T05:11:53.967Z,66.39
2018-08-22T05:14:24.589Z,66.88
2018-08-22T05:16:54.682Z,66.34
2018-08-22T05:19:24.585Z,66.19
2018-08-22T05:21:54.623Z,66.22
2018-08-22T05:24:24.614Z,66.28
2018-08-22T05:26:54.581Z,66.47
2018-08-22T05:29:24.439Z,66.39
2018-08-22T05:31:55.820Z,65.44
2018-08-22T05:34:26.167Z,65.06
2018-08-22T05:36:56.333Z,65.71
2018-08-22T05:39:26.179Z,64.64
2018-08-22T05:41:56.060Z,64.54
2018-08-22T05:44:25.987Z,64.00
2018-08-22T05:46:56.285Z,63.36
2018-08-22T05:49:26.067Z,62.24
2018-08-22T05:51:55.964Z,60.40
2018-08-22T05:54:26.008Z,59.25
2018-08-22T05:56:55.996Z,59.76
2018-08-22T05:59:26.000Z,59.69
2018-08-22T06:01:55.962Z,60.19
2018-08-22T06:04:25.755Z,59.48
2018-08-22T06:06:55.749Z,59.66
2018-08-22T06:09:26.052Z,60.06
2018-08-22T06:11:55.933Z,60.06
2018-08-22T06:14:25.950Z,60.14
2018-08-22T06:16:55.865Z,58.91
2018-08-22T06:19:25.921Z,59.21
2018-08-22T06:21:55.890Z,58.29
2018-08-22T06:24:25.642Z,58.29
2018-08-22T06:26:55.975Z,57.48
2018-08-22T06:29:26.032Z,57.84
2018-08-22T06:31:56.160Z,57.37
2018-08-22T06:34:26.333Z,57.83
2018-08-22T06:36:56.347Z,57.30
2018-08-22T06:39:26.227Z,56.85
2018-08-22T06:41:56.172Z,57.14
2018-08-22T06:44:26.026Z,56.93
2018-08-22T06:46:56.167Z,56.68
2018-08-22T06:49:26.058Z,56.39
2018-08-22T06:51:55.903Z,56.54
2018-08-22T06:54:25.844Z,56.31
2018-08-22T06:56:55.624Z,56.09
2018-08-22T06:59:25.794Z,54.49
2018-08-22T07:01:55.568Z,54.65
2018-08-22T07:04:25.375Z,54.19
2018-08-22T07:06:55.409Z,54.49
2018-08-22T07:09:25.194Z,54.02
2018-08-22T07:11:55.100Z,54.49
2018-08-22T07:14:25.179Z,53.85
2018-08-22T07:16:55.311Z,53.06
2018-08-22T07:19:25.184Z,52.88
2018-08-22T07:21:55.038Z,52.75
2018-08-22T07:24:24.976Z,53.70
2018-08-22T07:26:55.047Z,52.32
2018-08-22T07:29:25.179Z,52.41
2018-08-22T07:31:55.142Z,52.53
2018-08-22T07:34:24.956Z,52.53
2018-08-22T07:36:55.311Z,52.80
2018-08-22T07:39:25.371Z,51.92
2018-08-22T07:41:55.223Z,51.74
2018-08-22T07:44:25.161Z,51.75
2018-08-22T07:46:56.096Z,51.79
2018-08-22T07:49:26.139Z,51.05
2018-08-22T07:51:56.249Z,51.42
2018-08-22T07:54:34.855Z,51.96
2018-08-22T07:57:05.058Z,51.59
2018-08-22T07:59:35.239Z,51.46
2018-08-22T08:02:05.220Z,51.50
2018-08-22T08:04:35.381Z,52.56
2018-08-22T08:07:05.768Z,52.38
2018-08-22T08:09:35.885Z,52.16
2018-08-22T08:12:06.135Z,52.06
2018-08-22T08:14:36.138Z,51.70
2018-08-22T08:17:06.516Z,51.14
2018-08-22T08:19:36.549Z,51.79
2018-08-22T08:22:06.593Z,51.29
2018-08-22T08:24:36.747Z,52.14
2018-08-22T08:27:08.098Z,51.08
2018-08-22T08:29:38.224Z,51.80
2018-08-22T08:32:08.585Z,51.01
2018-08-22T08:34:38.659Z,50.60
2018-08-22T08:37:09.076Z,50.77
2018-08-22T08:39:39.184Z,51.04
2018-08-22T08:42:09.429Z,51.54
2018-08-22T08:44:39.374Z,50.31
2018-08-22T08:47:09.328Z,50.53
2018-08-22T08:49:39.422Z,50.29
2018-08-22T08:52:09.299Z,50.82
2018-08-22T08:54:40.325Z,51.29
2018-08-22T08:57:10.612Z,51.17
2018-08-22T08:59:40.480Z,50.49
2018-08-22T09:02:10.540Z,49.53
2018-08-22T09:04:40.515Z,49.34
2018-08-22T09:07:10.843Z,49.83
2018-08-22T09:09:40.843Z,49.78
2018-08-22T09:12:10.614Z,48.29
2018-08-22T09:14:40.668Z,48.93
2018-08-22T09:17:10.563Z,48.54
2018-08-22T09:19:41.073Z,47.45
2018-08-22T09:22:10.819Z,47.77
2018-08-22T09:24:40.907Z,48.05
2018-08-22T09:27:10.885Z,47.99
2018-08-22T09:29:40.737Z,47.36
2018-08-22T09:32:10.626Z,47.01
2018-08-22T09:34:40.569Z,47.68
2018-08-22T09:37:10.592Z,47.82
2018-08-22T09:39:40.399Z,47.50
2018-08-22T09:42:10.203Z,47.58
2018-08-22T09:44:40.209Z,47.19
2018-08-22T09:47:10.183Z,47.19
2018-08-22T09:49:40.110Z,47.37
2018-08-22T09:52:10.143Z,48.01
2018-08-22T09:54:56.630Z,47.50
2018-08-22T09:57:27.511Z,47.75
2018-08-22T09:59:57.479Z,47.71
2018-08-22T10:02:27.386Z,47.05
2018-08-22T10:04:57.405Z,46.54
2018-08-22T10:07:27.537Z,47.46
2018-08-22T10:09:57.381Z,46.38
2018-08-22T10:12:27.328Z,46.78
2018-08-22T10:14:57.489Z,46.52
2018-08-22T10:17:27.279Z,46.73
2018-08-22T10:19:57.444Z,46.46
2018-08-22T10:22:27.382Z,46.87
2018-08-22T10:24:57.244Z,47.15
2018-08-22T10:27:27.188Z,46.49
2018-08-22T10:29:57.469Z,46.56
2018-08-22T10:32:27.434Z,46.73
2018-08-22T10:34:57.689Z,46.69
2018-08-22T10:37:27.614Z,45.58
2018-08-22T10:39:57.460Z,46.76
2018-08-22T10:42:27.512Z,45.22
2018-08-22T10:44:57.330Z,46.46
2018-08-22T10:47:27.261Z,45.86
2018-08-22T10:49:57.046Z,46.59
2018-08-22T10:52:27.403Z,46.16
2018-08-22T10:54:57.452Z,46.66
2018-08-22T10:57:27.343Z,45.74
2018-08-22T10:59:57.477Z,45.79
2018-08-22T11:02:27.606Z,46.57
2018-08-22T11:04:57.679Z,46.36
2018-08-22T11:07:27.632Z,46.33
2018-08-22T11:09:57.842Z,45.38
2018-08-22T11:12:27.767Z,46.19
2018-08-22T11:14:57.674Z,45.70
2018-08-22T11:17:27.620Z,44.96
2018-08-22T11:19:57.528Z,45.03
2018-08-22T11:22:44.037Z,46.26
2018-08-22T11:25:30.524Z,45.65
2018-08-22T11:28:17.054Z,46.65
2018-08-22T11:31:03.463Z,45.08
2018-08-22T11:33:49.970Z,45.81
2018-08-22T11:36:18.067Z,44.20
2018-08-22T11:38:47.992Z,44.91
2018-08-22T11:41:17.993Z,44.31
2018-08-22T11:43:48.049Z,44.72
2018-08-22T11:46:18.099Z,45.29
2018-08-22T11:48:48.141Z,44.40
2018-08-22T11:51:18.043Z,45.57
2018-08-22T11:53:48.081Z,44.25
2018-08-22T11:56:18.007Z,44.55
2018-08-22T11:58:47.957Z,44.59
2018-08-22T12:01:17.976Z,45.40
2018-08-22T12:03:48.019Z,45.74
2018-08-22T12:06:18.157Z,45.20
2018-08-22T12:08:48.162Z,44.67
2018-08-22T12:11:18.078Z,43.58
2018-08-22T12:13:47.964Z,44.44
2018-08-22T12:16:17.999Z,44.81
2018-08-22T12:18:48.073Z,44.60
2018-08-22T12:21:18.216Z,43.67
2018-08-22T12:23:48.533Z,44.00
2018-08-22T12:26:18.540Z,44.47
2018-08-22T12:28:48.572Z,43.03
2018-08-22T12:31:18.644Z,43.54
2018-08-22T12:33:48.787Z,43.39
2018-08-22T12:36:18.898Z,43.44
2018-08-22T12:38:49.056Z,42.90
2018-08-22T12:41:19.100Z,42.89
2018-08-22T12:43:49.262Z,43.99
2018-08-22T12:46:19.158Z,43.27
2018-08-22T12:48:49.284Z,43.16
2018-08-22T12:51:19.433Z,43.93
2018-08-22T12:53:49.980Z,42.53
2018-08-22T12:56:20.211Z,42.23
2018-08-22T12:58:50.356Z,42.23
2018-08-22T13:01:20.481Z,41.72
2018-08-22T13:03:50.477Z,41.25
2018-08-22T13:06:20.563Z,41.22
2018-08-22T13:08:51.452Z,41.17
2018-08-22T13:11:21.417Z,40.27
2018-08-22T13:13:51.517Z,39.62
2018-08-22T13:16:21.647Z,40.17
2018-08-22T13:18:51.580Z,40.38
2018-08-22T13:21:21.593Z,39.51
2018-08-22T13:23:51.901Z,40.44
2018-08-22T13:26:21.764Z,39.98
2018-08-22T13:28:52.367Z,39.93
2018-08-22T13:31:22.309Z,41.09
2018-08-22T13:33:52.570Z,41.94
2018-08-22T13:36:22.605Z,41.56
2018-08-22T13:38:52.749Z,40.52
2018-08-22T13:41:22.676Z,40.13
2018-08-22T13:43:52.979Z,39.49
2018-08-22T13:46:22.859Z,40.23
2018-08-22T13:48:53.557Z,40.09
2018-08-22T13:51:23.490Z,39.89
2018-08-22T13:53:53.395Z,39.89
2018-08-22T13:56:23.659Z,38.89
2018-08-22T13:58:53.853Z,38.25
2018-08-22T14:01:23.821Z,38.23
2018-08-22T14:03:53.740Z,38.60
2018-08-22T14:06:25.115Z,38.47
2018-08-22T14:08:55.163Z,37.63
2018-08-22T14:11:24.992Z,37.90
2018-08-22T14:13:55.157Z,37.17
2018-08-22T14:16:25.012Z,36.47
2018-08-22T14:18:55.072Z,36.93
2018-08-22T14:21:24.943Z,37.39
2018-08-22T14:23:54.967Z,37.36
2018-08-22T14:26:25.416Z,36.50
2018-08-22T14:28:55.492Z,37.95
2018-08-22T14:31:25.571Z,36.98
2018-08-22T14:33:55.985Z,37.87
2018-08-22T14:36:26.028Z,37.26
2018-08-22T14:38:56.444Z,39.01
2018-08-22T14:41:26.472Z,39.18
2018-08-22T14:43:56.481Z,38.41
2018-08-22T14:46:26.376Z,37.79
2018-08-22T14:48:56.645Z,37.14
2018-08-22T14:51:26.560Z,36.94
2018-08-22T14:53:56.642Z,37.81
2018-08-22T14:56:27.029Z,37.64
2018-08-22T14:58:56.947Z,37.26
2018-08-22T15:01:27.508Z,37.06
2018-08-22T15:03:57.495Z,37.82
2018-08-22T15:06:27.539Z,38.12
2018-08-22T15:09:05.893Z,38.81
2018-08-22T15:11:36.825Z,37.28
2018-08-22T15:14:07.188Z,38.50
2018-08-22T15:16:37.174Z,38.90
2018-08-22T15:19:07.390Z,39.07
2018-08-22T15:21:37.820Z,38.95
2018-08-22T15:24:07.734Z,39.59
2018-08-22T15:26:37.765Z,40.23
2018-08-22T15:29:07.573Z,40.27
2018-08-22T15:31:37.573Z,41.36
2018-08-22T15:34:07.628Z,42.78
2018-08-22T15:36:44.265Z,43.15
2018-08-22T15:39:14.275Z,43.01
2018-08-22T15:41:44.282Z,43.90
2018-08-22T15:44:14.431Z,42.82
2018-08-22T15:46:44.302Z,43.38
2018-08-22T15:49:14.421Z,44.52
2018-08-22T15:51:44.401Z,44.67
2018-08-22T15:54:15.729Z,44.82
2018-08-22T15:56:45.732Z,44.15
2018-08-22T15:59:15.957Z,44.44
2018-08-22T16:01:46.003Z,44.34
2018-08-22T16:04:16.210Z,43.79
2018-08-22T16:06:48.690Z,45.45
2018-08-22T16:09:25.112Z,44.80
2018-08-22T16:11:55.860Z,45.34
2018-08-22T16:14:26.223Z,44.97
2018-08-22T16:16:56.417Z,44.01
2018-08-22T16:19:26.904Z,45.25
2018-08-22T16:21:57.004Z,43.94
2018-08-22T16:24:29.494Z,44.38
2018-08-22T16:26:59.658Z,45.16
2018-08-22T16:29:30.370Z,44.89
2018-08-22T16:32:00.696Z,44.12
2018-08-22T16:34:30.760Z,44.91
2018-08-22T16:37:00.644Z,45.53
2018-08-22T16:39:42.435Z,46.24
2018-08-22T16:42:12.874Z,45.28
2018-08-22T16:44:42.964Z,46.39
2018-08-22T16:47:13.359Z,46.33
2018-08-22T16:49:44.005Z,45.49
2018-08-22T16:52:14.207Z,46.68
2018-08-22T16:54:44.176Z,47.12
2018-08-22T16:57:14.125Z,46.29
2018-08-22T16:59:44.205Z,46.88
2018-08-22T17:02:14.216Z,46.93
2018-08-22T17:04:44.656Z,48.02
2018-08-22T17:07:17.526Z,48.10
2018-08-22T17:09:49.745Z,48.22
2018-08-22T17:12:20.060Z,47.34
2018-08-22T17:14:50.084Z,46.56
2018-08-22T17:17:20.391Z,47.84
2018-08-22T17:19:50.377Z,47.02
2018-08-22T17:22:20.921Z,47.31
2018-08-22T17:24:51.311Z,47.72
2018-08-22T17:27:21.765Z,48.41
2018-08-22T17:29:51.851Z,48.66
2018-08-22T17:32:22.053Z,48.89
2018-08-22T17:34:52.118Z,49.14
2018-08-22T17:37:22.442Z,48.49
2018-08-22T17:39:52.512Z,48.27
2018-08-22T17:42:22.659Z,49.29
2018-08-22T17:44:53.081Z,48.27
2018-08-22T17:47:23.486Z,48.30
2018-08-22T17:50:05.016Z,48.50
2018-08-22T17:52:34.962Z,50.11
2018-08-22T17:55:04.945Z,48.71
2018-08-22T17:57:35.261Z,49.83
2018-08-22T18:00:05.446Z,49.91
2018-08-22T18:02:35.603Z,49.13
2018-08-22T18:05:05.821Z,50.02
2018-08-22T18:07:35.727Z,49.99
2018-08-22T18:10:05.835Z,49.74
2018-08-22T18:12:35.811Z,50.36
2018-08-22T18:15:06.189Z,50.52
2018-08-22T18:17:36.331Z,49.94
2018-08-22T18:20:06.681Z,50.88
2018-08-22T18:22:38.213Z,50.86
2018-08-22T18:25:08.585Z,51.42
2018-08-22T18:27:38.446Z,52.49
2018-08-22T18:30:12.271Z,52.75
2018-08-22T18:32:42.572Z,52.78
2018-08-22T18:35:13.147Z,53.37
2018-08-22T18:37:43.267Z,52.60
2018-08-22T18:40:21.912Z,53.25
2018-08-22T18:42:58.077Z,53.19
2018-08-22T18:45:30.319Z,53.33
2018-08-22T18:48:05.829Z,54.24
2018-08-22T18:50:36.275Z,54.15
2018-08-22T18:53:06.608Z,54.12
2018-08-22T18:55:36.835Z,54.45
2018-08-22T18:58:06.931Z,54.91
2018-08-22T19:00:39.185Z,54.73
2018-08-22T19:03:09.110Z,55.10
2018-08-22T19:05:39.425Z,54.38
2018-08-22T19:08:12.583Z,55.30
2018-08-22T19:10:43.939Z,54.67
2018-08-22T19:13:23.889Z,55.06
2018-08-22T19:16:02.521Z,55.36
2018-08-22T19:18:33.084Z,56.30
2018-08-22T19:21:04.839Z,56.92
2018-08-22T19:23:34.972Z,57.87
2018-08-22T19:26:06.133Z,58.37
2018-08-22T19:28:54.554Z,57.67
2018-08-22T19:31:24.579Z,58.65
2018-08-22T19:33:54.693Z,58.59
2018-08-22T19:36:24.836Z,58.89
2018-08-22T19:38:54.808Z,59.49
2018-08-22T19:41:30.958Z,60.24
2018-08-22T19:44:00.873Z,59.95
2018-08-22T19:46:30.870Z,59.86
2018-08-22T19:49:02.313Z,60.82
2018-08-22T19:51:32.374Z,60.57
2018-08-22T19:54:04.913Z,61.30
2018-08-22T19:56:35.044Z,60.42
2018-08-22T19:59:05.773Z,61.42
2018-08-22T20:01:37.290Z,60.96
2018-08-22T20:04:07.403Z,60.95
2018-08-22T20:06:37.359Z,62.08
2018-08-22T20:09:07.899Z,61.46
2018-08-22T20:11:38.276Z,61.55
2018-08-22T20:14:08.464Z,61.82
2018-08-22T20:16:38.571Z,62.49
2018-08-22T20:19:10.072Z,61.93
2018-08-22T20:21:41.361Z,61.87
2018-08-22T20:24:13.420Z,62.96
2018-08-22T20:26:51.488Z,62.93
2018-08-22T20:29:21.485Z,62.86
2018-08-22T20:31:51.641Z,63.21
2018-08-22T20:34:21.658Z,63.40
2018-08-22T20:36:51.561Z,63.74
2018-08-22T20:39:21.663Z,63.29
2018-08-22T20:41:57.779Z,63.68
2018-08-22T20:44:28.662Z,63.83
2018-08-22T20:46:59.576Z,63.37
2018-08-22T20:49:29.617Z,63.16
2018-08-22T20:51:59.420Z,63.18
2018-08-22T20:54:29.921Z,64.34
2018-08-22T20:57:01.168Z,63.82
2018-08-22T20:59:31.145Z,64.49
2018-08-22T21:02:07.718Z,64.48
2018-08-22T21:04:37.587Z,64.30
2018-08-22T21:07:07.886Z,65.06
2018-08-22T21:09:37.885Z,65.25
2018-08-22T21:12:07.832Z,65.28
2018-08-22T21:14:37.811Z,65.38
2018-08-22T21:17:08.019Z,65.71
2018-08-22T21:19:38.032Z,64.10
2018-08-22T21:22:25.467Z,64.60
2018-08-22T21:24:57.601Z,65.14
2018-08-22T21:27:28.708Z,64.41
2018-08-22T21:29:58.752Z,64.53
2018-08-22T21:32:28.778Z,64.65
2018-08-22T21:34:58.783Z,65.74
2018-08-22T21:37:30.230Z,65.87
2018-08-22T21:40:00.428Z,65.61
2018-08-22T21:42:33.243Z,65.25
2018-08-22T21:45:03.816Z,65.75
2018-08-22T21:47:33.815Z,65.69
2018-08-22T21:50:03.690Z,65.94
2018-08-22T21:53:02.136Z,66.39
2018-08-22T21:55:37.080Z,66.04
2018-08-22T21:58:08.253Z,65.83
2018-08-22T22:00:38.730Z,66.40
2018-08-22T22:03:10.792Z,66.76
2018-08-22T22:05:55.464Z,67.34
2018-08-22T22:08:25.889Z,67.45
2018-08-22T22:11:04.328Z,67.21
2018-08-22T22:13:34.399Z,67.00
2018-08-22T22:16:05.866Z,66.10
2018-08-22T22:18:36.520Z,66.60
2018-08-22T22:21:13.995Z,66.35
2018-08-22T22:23:47.534Z,66.80
2018-08-22T22:26:18.799Z,66.23
2018-08-22T22:28:48.997Z,67.21
2018-08-22T22:31:19.026Z,66.86
2018-08-22T22:34:07.827Z,66.43
2018-08-22T22:36:37.953Z,67.18
2018-08-22T22:39:42.700Z,67.00
2018-08-22T22:42:18.317Z,66.89
2018-08-22T22:44:51.263Z,67.18
2018-08-22T22:47:28.620Z,66.88
2018-08-22T22:49:58.955Z,67.43
2018-08-22T22:52:46.486Z,67.68
2018-08-22T22:55:16.732Z,66.41
2018-08-22T22:57:46.684Z,67.10
2018-08-22T23:00:17.622Z,67.14
2018-08-22T23:02:52.927Z,66.28
2018-08-22T23:05:22.932Z,67.49
2018-08-22T23:07:52.888Z,67.91
2018-08-22T23:10:22.920Z,67.97
2018-08-22T23:12:54.305Z,67.79
2018-08-22T23:15:28.163Z,67.71
2018-08-22T23:17:59.389Z,67.84
2018-08-22T23:20:45.033Z,68.64
2018-08-22T23:23:30.962Z,68.79
2018-08-22T23:26:11.972Z,68.12
2018-08-22T23:28:43.393Z,67.70
2018-08-22T23:31:15.705Z,67.80
2018-08-22T23:33:45.594Z,68.71
2018-08-22T23:36:15.536Z,68.15
2018-08-22T23:38:45.460Z,67.44
2018-08-22T23:41:15.457Z,68.25
2018-08-22T23:43:50.383Z,67.64
2018-08-22T23:46:20.716Z,67.87
2018-08-22T23:48:58.907Z,68.15
2018-08-22T23:51:28.775Z,68.39
2018-08-22T23:54:00.950Z,67.55
2018-08-22T23:56:32.362Z,67.98
2018-08-22T23:59:02.447Z,67.85
